To NAV CANADA Home Page Login to a new session Search on AWWS site Feedback and Comments Disclaimer Vers la page française équivalente Tips FAQ What's new on the site To the Forecasts and Observations / NOTAM section To "File a Flight Plan" website Publications and other links Update of the User's profile FIC Telephone Numbers My Weather Data Folder Route Weather Data Regional Weather Data Local Weather Data To the Forecasts and Observations / NOTAM section
Request Generated 07/04/2015 at 02:32:28 UTC . Weather information available at that time is displayed.

METAR/TAF

EARLTON/EARLTON (TIMISKAMING REGIONAL)/ON    (show WxCam)

METAR CYXR 040200Z AUTO 21010G15KT 9SM BKN120 17/10 A2983 RMK SLP105
DENSITY ALT 1200FT=
METAR CYXR 040100Z AUTO 21012G18KT 9SM SCT080 BKN130 17/11 A2983 RMK
SLP104 DENSITY ALT 1300FT=
METAR CYXR 040000Z AUTO 22010G15KT 9SM OVC065 18/11 A2983 RMK SLP106
DENSITY ALT 1400FT=

*** REMARK        : Forecast period has ended; this was the last TAF issued
*** REMARQUE : La période de prévision est échue; ceci était le dernier TAF qui a été émis
TAF CYXR 031738Z 0318/0324 20012G22KT P6SM -RA SCT020 OVC040 TEMPO
0318/0324 5SM -RA BR OVC020
BECMG 0321/0323 23012KT
RMK FCST BASED ON AUTO OBS. NXT FCST WILL BE ISSUED AT 041145Z=
Your time UTC time
Weather data provided by Environment Canada and NAV CANADA